»·PEaware :: N446AF KSAC-O88

N446AF :: KSAC-O88

FLIGHT INFORMATION

Flight Status: Arrived
Operator: Privately registered:
United States
More flights under this callsign
Pilot: Richard P. (20316)
Aircraft: CESSNA 172 SKYHAWK
(C172)
More flights by this aircraft type
Origin: KSAC Sacramento Executive
United States
Destination: O88 Rio Vista Mun
United States
More flights between these airports :: More routes between these airports
Route: SAC COUPS
File this flight plan on PilotEdge
Remarks:
Altitude:
(Current/Filed)
2,500ft
Speed:
(Current/Filed)
90kts
Departed: 03-Oct-18 03:50 AM
Arrived: 03-Oct-18 04:29 AM
Distance/Time
Traveled:
22nm/0:39
Distance/Time
To Go:
Arrived

Flight Plot

Page will automatically refresh every two minutes.

Flight plan parsing failed; only flown route is shown


Map Options




Map Legend


Flown Route
Filed Route
Departure Airport
Arrival Airport
Navaid (VOR, NDB)
Fix

Horizontal Profiles

Position Reports

Time Latitude Longitude Heading Altitude Ground
Speed
03-Oct-18 03:29 38.514767 -121.499559 137 27ft 0kts
03-Oct-18 03:30 38.514767 -121.499559 137 27ft 0kts
03-Oct-18 03:31 38.514767 -121.499559 137 27ft 0kts
03-Oct-18 03:32 38.514767 -121.499559 137 27ft 0kts
03-Oct-18 03:33 38.514767 -121.499559 137 27ft 0kts
03-Oct-18 03:34 38.514767 -121.499559 137 27ft 0kts
03-Oct-18 03:35 38.514767 -121.499559 137 27ft 0kts
03-Oct-18 03:36 38.514767 -121.499559 137 27ft 0kts
03-Oct-18 03:37 38.514767 -121.499559 137 27ft 0kts
03-Oct-18 03:38 38.514786 -121.499397 61 27ft 3kts
03-Oct-18 03:39 38.514861 -121.499137 73 27ft 2kts
03-Oct-18 03:40 38.513962 -121.497134 136 27ft 18kts
03-Oct-18 03:41 38.513356 -121.495418 95 27ft 0kts
03-Oct-18 03:42 38.513356 -121.495418 95 27ft 0kts
03-Oct-18 03:43 38.513315 -121.494372 92 27ft 13kts
03-Oct-18 03:44 38.512351 -121.490783 118 27ft 12kts
03-Oct-18 03:45 38.510861 -121.487257 120 27ft 12kts
03-Oct-18 03:46 38.510600 -121.485989 33 27ft 0kts
03-Oct-18 03:47 38.510600 -121.485989 33 27ft 0kts
03-Oct-18 03:48 38.510600 -121.485989 33 27ft 0kts
03-Oct-18 03:49 38.510600 -121.485989 33 27ft 0kts
03-Oct-18 03:50 38.510600 -121.485989 33 27ft 0kts
03-Oct-18 03:51 38.510816 -121.485825 40 27ft 9kts
03-Oct-18 03:52 38.517955 -121.493859 321 252ft 83kts
03-Oct-18 03:53 38.532597 -121.506070 283 1104ft 86kts
03-Oct-18 03:54 38.516614 -121.521490 196 2106ft 85kts
03-Oct-18 03:55 38.493757 -121.527531 196 2554ft 97kts
03-Oct-18 03:56 38.471309 -121.536190 207 2485ft 95kts
03-Oct-18 03:57 38.449374 -121.550167 211 2472ft 90kts
03-Oct-18 03:58 38.427825 -121.564697 213 2576ft 92kts
03-Oct-18 03:59 38.406998 -121.577304 203 2632ft 96kts
03-Oct-18 04:00 38.384585 -121.588481 203 2612ft 93kts
03-Oct-18 04:01 38.362802 -121.583604 118 1893ft 100kts
03-Oct-18 04:02 38.366152 -121.555051 59 1224ft 98kts
03-Oct-18 04:03 38.385496 -121.556827 276 1075ft 80kts
03-Oct-18 04:04 38.369632 -121.572094 160 1009ft 87kts
03-Oct-18 04:05 38.368045 -121.548655 41 1136ft 75kts
03-Oct-18 04:06 38.387629 -121.539760 347 1030ft 88kts
03-Oct-18 04:07 38.407916 -121.547652 297 1403ft 85kts
03-Oct-18 04:08 38.394598 -121.560394 201 2377ft 80kts
03-Oct-18 04:09 38.372418 -121.570312 203 2528ft 96kts
03-Oct-18 04:10 38.349547 -121.586175 202 2460ft 94kts
03-Oct-18 04:11 38.326278 -121.597568 210 2507ft 91kts
03-Oct-18 04:12 38.305118 -121.614434 208 2520ft 94kts
03-Oct-18 04:13 38.284707 -121.630539 208 2542ft 92kts
03-Oct-18 04:14 38.263681 -121.642605 207 2476ft 95kts
03-Oct-18 04:15 38.241908 -121.651695 211 1898ft 88kts
03-Oct-18 04:16 38.222679 -121.668402 218 1548ft 81kts
03-Oct-18 04:17 38.207262 -121.686321 226 1517ft 73kts
03-Oct-18 04:18 38.193682 -121.703693 223 1604ft 79kts
03-Oct-18 04:19 38.184312 -121.718819 232 1294ft 81kts
03-Oct-18 04:20 38.187265 -121.733117 47 1109ft 89kts
03-Oct-18 04:21 38.189350 -121.705484 102 1018ft 92kts
03-Oct-18 04:22 38.186109 -121.679925 92 939ft 85kts
03-Oct-18 04:23 38.197833 -121.677627 230 592ft 55kts
03-Oct-18 04:24 38.194378 -121.694116 254 52ft 50kts
03-Oct-18 04:25 38.193804 -121.708996 268 316ft 67kts
03-Oct-18 04:26 38.186210 -121.724016 164 1100ft 76kts
03-Oct-18 04:27 38.181889 -121.700192 90 1180ft 92kts
03-Oct-18 04:28 38.181845 -121.673575 93 986ft 83kts
03-Oct-18 04:29 38.197103 -121.666966 270 591ft 58kts
03-Oct-18 04:30 38.194947 -121.685268 260 223ft 55kts
03-Oct-18 04:31 38.193987 -121.700259 265 24ft 19kts
03-Oct-18 04:32 38.193667 -121.705999 265 24ft 16kts

Navigation Log

Ident Type
Flight plan parsing failed, navigation log unavailable